Terminal Aerodrome Forecast
Issued by NWS

Home | Current Version | Previous Version | Text Only | Print | Product List | Glossary On
Versions: 1 2 3 4 5 6 7 8 9 10 11 12 13 14 15 16 17 18 19 20 21 22 23 24 25 26 27
000
FTUS46 KSGX 301100
TAFSAN
TAF
KSAN 301120Z 3012/0118 VRB03KT P6SM SCT015
     FM301900 27009KT P6SM SKC
     FM010200 VRB04KT P6SM SCT010
     FM010500 VRB03KT P6SM OVC010
     FM011700 VRB04KT P6SM SCT012=

USA.gov is the U.S. government's official web portal to all federal, state and local government web resources and services.